createdAt,value
2022-07-25T00:00:57.589Z,443.40
2022-07-25T00:03:29.518Z,431.33
2022-07-25T00:05:59.637Z,506.77
2022-07-25T00:08:28.142Z,429.30
2022-07-25T00:10:56.678Z,443.98
2022-07-25T00:13:25.178Z,436.42
2022-07-25T00:15:53.875Z,418.67
2022-07-25T00:18:22.734Z,411.88
2022-07-25T00:20:51.376Z,405.30
2022-07-25T00:23:21.363Z,378.95
2022-07-25T00:25:50.270Z,383.33
2022-07-25T00:28:18.840Z,400.95
2022-07-25T00:30:48.048Z,416.40
2022-07-25T00:33:16.696Z,417.90
2022-07-25T00:35:45.420Z,409.27
2022-07-25T00:38:15.441Z,413.92
2022-07-25T00:40:45.774Z,413.25
2022-07-25T00:43:22.804Z,389.55
2022-07-25T00:45:51.384Z,370.02
2022-07-25T00:48:19.867Z,400.95
2022-07-25T00:50:48.335Z,390.67
2022-07-25T00:53:17.210Z,374.63
2022-07-25T00:55:48.166Z,368.92
2022-07-25T00:58:16.807Z,378.77
2022-07-25T01:00:45.343Z,376.52
2022-07-25T01:03:14.034Z,393.95
2022-07-25T01:05:42.820Z,373.52
2022-07-25T01:08:11.984Z,383.98
2022-07-25T01:10:40.784Z,384.55
2022-07-25T01:13:10.734Z,357.50
2022-07-25T01:15:39.454Z,356.98
2022-07-25T01:18:08.010Z,388.55
2022-07-25T01:20:38.207Z,387.27
2022-07-25T01:23:06.795Z,361.38
2022-07-25T01:25:35.266Z,391.60
2022-07-25T01:28:05.196Z,347.25
2022-07-25T01:30:33.790Z,334.70
2022-07-25T01:33:06.708Z,357.27
2022-07-25T01:35:43.057Z,340.25
2022-07-25T01:38:11.986Z,320.73
2022-07-25T01:40:41.009Z,348.73
2022-07-25T01:43:09.815Z,329.98
2022-07-25T01:45:38.635Z,328.58
2022-07-25T01:48:07.540Z,344.83
2022-07-25T01:50:37.500Z,336.60
2022-07-25T01:53:06.329Z,364.95
2022-07-25T01:55:34.938Z,347.58
2022-07-25T01:58:03.444Z,342.08
2022-07-25T02:00:31.985Z,371.02
2022-07-25T02:03:17.781Z,375.00
2022-07-25T02:05:47.639Z,344.77
2022-07-25T02:08:16.150Z,367.92
2022-07-25T02:10:45.955Z,362.95
2022-07-25T02:13:14.400Z,394.40
2022-07-25T02:15:43.007Z,349.05
2022-07-25T02:18:11.803Z,385.95
2022-07-25T02:20:40.594Z,381.05
2022-07-25T02:23:10.987Z,354.70
2022-07-25T02:25:39.602Z,366.67
2022-07-25T02:28:08.080Z,376.63
2022-07-25T02:30:39.587Z,351.95
2022-07-25T02:33:08.082Z,364.73
2022-07-25T02:35:36.602Z,335.42
2022-07-25T02:38:05.221Z,347.73
2022-07-25T02:40:35.140Z,361.35
2022-07-25T02:43:03.725Z,343.23
2022-07-25T02:45:32.249Z,353.60
2022-07-25T02:48:02.787Z,351.35
2022-07-25T02:50:31.349Z,331.85
2022-07-25T02:53:00.117Z,334.77
2022-07-25T02:55:28.602Z,341.92
2022-07-25T02:57:58.516Z,321.15
2022-07-25T03:00:27.688Z,344.52
2022-07-25T03:02:56.415Z,342.33
2022-07-25T03:05:25.149Z,343.23
2022-07-25T03:07:54.696Z,345.67
2022-07-25T03:10:23.729Z,343.10
2022-07-25T03:12:52.472Z,348.08
2022-07-25T03:15:22.430Z,319.30
2022-07-25T03:17:50.923Z,336.58
2022-07-25T03:20:19.757Z,340.15
2022-07-25T03:22:49.110Z,339.63
2022-07-25T03:25:21.706Z,327.55
2022-07-25T03:27:51.236Z,347.80
2022-07-25T03:30:19.722Z,342.50
2022-07-25T03:32:50.002Z,340.80
2022-07-25T03:35:18.602Z,302.60
2022-07-25T03:37:47.109Z,319.00
2022-07-25T03:40:16.109Z,323.80
2022-07-25T03:42:45.275Z,310.17
2022-07-25T03:45:13.803Z,295.30
2022-07-25T03:47:42.279Z,329.05
2022-07-25T03:50:12.510Z,304.88
2022-07-25T03:52:41.000Z,324.27
2022-07-25T03:55:11.353Z,313.23
2022-07-25T03:57:40.234Z,303.73
2022-07-25T04:00:12.376Z,321.20
2022-07-25T04:05:50.723Z,284.83
2022-07-25T04:08:19.186Z,294.67
2022-07-25T04:10:47.646Z,316.27
2022-07-25T04:13:16.322Z,293.48
2022-07-25T04:15:44.843Z,310.65
2022-07-25T04:18:15.722Z,315.27
2022-07-25T04:20:51.034Z,313.98
2022-07-25T04:23:19.800Z,316.23
2022-07-25T04:25:48.273Z,318.50
2022-07-25T04:28:16.969Z,313.50
2022-07-25T04:30:45.566Z,312.60
2022-07-25T04:33:14.334Z,314.70
2022-07-25T04:35:42.869Z,285.83
2022-07-25T04:38:12.729Z,314.48
2022-07-25T04:40:41.627Z,301.25
2022-07-25T04:43:10.432Z,319.65
2022-07-25T04:45:39.099Z,297.15
2022-07-25T04:48:07.996Z,306.60
2022-07-25T04:50:36.996Z,308.90
2022-07-25T04:53:06.059Z,316.45
2022-07-25T04:55:36.647Z,307.25
2022-07-25T04:58:05.369Z,314.00
2022-07-25T05:00:34.543Z,305.27
2022-07-25T05:03:03.094Z,329.42
2022-07-25T05:05:31.565Z,320.35
2022-07-25T05:08:00.935Z,302.25
2022-07-25T05:10:30.839Z,300.92
2022-07-25T05:13:00.708Z,352.38
2022-07-25T05:15:29.230Z,359.75
2022-07-25T05:17:57.834Z,400.10
2022-07-25T05:20:26.526Z,382.52
2022-07-25T05:22:55.025Z,445.67
2022-07-25T05:25:24.027Z,454.30
2022-07-25T05:27:54.720Z,466.38
2022-07-25T05:30:24.657Z,440.50
2022-07-25T05:32:53.134Z,486.17
2022-07-25T05:35:21.757Z,482.20
2022-07-25T05:37:50.250Z,484.20
2022-07-25T05:40:19.517Z,498.90
2022-07-25T05:42:48.361Z,465.10
2022-07-25T05:45:16.876Z,495.33
2022-07-25T05:47:46.735Z,478.27
2022-07-25T05:50:16.260Z,508.75
2022-07-25T05:52:44.767Z,516.55
2022-07-25T05:55:13.762Z,526.67
2022-07-25T05:57:42.224Z,545.20
2022-07-25T06:00:12.008Z,514.58
2022-07-25T06:02:40.765Z,491.10
2022-07-25T06:05:11.289Z,449.92
2022-07-25T06:07:40.029Z,415.05
2022-07-25T06:10:09.518Z,457.90
2022-07-25T06:12:38.628Z,507.92
2022-07-25T06:15:17.696Z,532.90
2022-07-25T06:17:50.879Z,559.75
2022-07-25T06:20:21.011Z,638.45
2022-07-25T06:22:49.523Z,627.15
2022-07-25T06:25:17.993Z,642.50
2022-07-25T06:27:46.818Z,705.33
2022-07-25T06:30:20.227Z,685.45
2022-07-25T06:32:49.343Z,714.50
2022-07-25T06:35:18.025Z,770.28
2022-07-25T06:37:48.247Z,789.00
2022-07-25T06:40:17.128Z,777.10
2022-07-25T06:42:48.055Z,775.40
2022-07-25T06:45:17.915Z,796.72
2022-07-25T06:47:46.580Z,783.33
2022-07-25T06:50:18.688Z,802.10
2022-07-25T06:52:51.221Z,834.28
2022-07-25T06:55:19.911Z,802.17
2022-07-25T06:57:48.415Z,803.80
2022-07-25T07:00:17.276Z,837.65
2022-07-25T07:02:53.718Z,844.42
2022-07-25T07:05:22.642Z,867.97
2022-07-25T07:07:53.408Z,849.97
2022-07-25T07:10:23.301Z,847.33
2022-07-25T07:12:53.038Z,844.72
2022-07-25T07:15:22.859Z,835.80
2022-07-25T07:17:51.905Z,835.20
2022-07-25T07:20:20.342Z,862.72
2022-07-25T07:22:50.220Z,839.08
2022-07-25T07:25:21.498Z,833.47
2022-07-25T07:27:51.704Z,835.25
2022-07-25T07:30:24.778Z,870.83
2022-07-25T07:32:58.520Z,862.88
2022-07-25T07:35:27.303Z,896.25
2022-07-25T07:37:56.675Z,887.95
2022-07-25T07:40:27.059Z,891.88
2022-07-25T07:42:57.189Z,888.53
2022-07-25T07:45:26.483Z,900.05
2022-07-25T07:47:56.086Z,901.60
2022-07-25T07:50:27.623Z,907.90
2022-07-25T07:52:58.510Z,896.10
2022-07-25T07:55:48.963Z,901.33
2022-07-25T07:58:19.592Z,852.20
2022-07-25T08:00:51.727Z,895.50
2022-07-25T08:03:21.914Z,880.28
2022-07-25T08:05:51.987Z,912.83
2022-07-25T08:08:20.801Z,864.10
2022-07-25T08:10:52.693Z,867.05
2022-07-25T08:13:26.483Z,872.05
2022-07-25T08:15:59.536Z,897.55
2022-07-25T08:18:30.135Z,902.47
2022-07-25T08:20:58.783Z,920.90
2022-07-25T08:23:28.908Z,950.42
2022-07-25T08:25:59.002Z,841.80
2022-07-25T08:28:27.766Z,959.45
2022-07-25T08:30:56.430Z,944.53
2022-07-25T08:33:25.171Z,980.78
2022-07-25T08:35:55.791Z,916.22
2022-07-25T08:38:26.424Z,974.90
2022-07-25T08:40:56.467Z,967.60
2022-07-25T08:43:26.454Z,939.95
2022-07-25T08:45:56.139Z,844.00
2022-07-25T08:48:26.961Z,983.50
2022-07-25T08:50:57.355Z,990.38
2022-07-25T08:53:35.322Z,974.17
2022-07-25T08:56:12.239Z,996.42
2022-07-25T08:58:44.401Z,999.90
2022-07-25T09:01:13.908Z,999.90
2022-07-25T09:03:43.951Z,998.28
2022-07-25T09:06:18.122Z,998.67
2022-07-25T09:08:53.808Z,999.90
2022-07-25T09:11:30.321Z,999.90
2022-07-25T09:14:06.874Z,999.90
2022-07-25T09:16:40.119Z,988.22
2022-07-25T09:19:11.666Z,985.92
2022-07-25T09:21:41.241Z,999.90
2022-07-25T09:24:16.149Z,999.90
2022-07-25T09:26:46.899Z,999.90
2022-07-25T09:29:23.455Z,999.90
2022-07-25T09:31:52.676Z,999.90
2022-07-25T09:34:38.490Z,999.90
2022-07-25T09:37:08.501Z,998.65
2022-07-25T09:39:45.437Z,999.90
2022-07-25T09:42:20.026Z,999.90
2022-07-25T09:45:04.923Z,999.90
2022-07-25T09:47:35.311Z,999.90
2022-07-25T09:50:04.464Z,999.90
2022-07-25T09:52:33.936Z,999.90
2022-07-25T09:55:04.702Z,999.90
2022-07-25T09:57:33.346Z,999.90
2022-07-25T10:00:03.549Z,999.90
2022-07-25T10:02:49.897Z,999.90
2022-07-25T10:05:30.126Z,999.90
2022-07-25T10:07:59.589Z,999.90
2022-07-25T10:10:30.423Z,999.90
2022-07-25T10:13:11.206Z,999.90
2022-07-25T10:15:50.070Z,999.90
2022-07-25T10:18:20.202Z,999.90
2022-07-25T10:20:50.583Z,935.13
2022-07-25T10:23:24.328Z,999.90
2022-07-25T10:26:09.656Z,948.15
2022-07-25T10:28:40.543Z,999.90
2022-07-25T10:31:27.914Z,999.90
2022-07-25T10:33:58.591Z,999.90
2022-07-25T10:36:33.728Z,999.90
2022-07-25T10:39:03.025Z,999.90
2022-07-25T10:41:31.628Z,999.90
2022-07-25T10:44:04.221Z,999.90
2022-07-25T10:46:36.435Z,985.55
2022-07-25T10:49:07.050Z,999.90
2022-07-25T10:51:41.544Z,999.90
2022-07-25T10:54:15.577Z,999.90
2022-07-25T10:56:56.472Z,999.90
2022-07-25T10:59:30.889Z,999.90
2022-07-25T11:02:01.684Z,999.90
2022-07-25T11:04:31.544Z,999.90
2022-07-25T11:07:09.832Z,937.60
2022-07-25T11:09:39.182Z,930.33
2022-07-25T11:12:08.226Z,911.30
2022-07-25T11:14:39.944Z,929.35
2022-07-25T11:17:15.855Z,854.40
2022-07-25T11:19:47.188Z,696.60
2022-07-25T11:22:17.653Z,728.40
2022-07-25T11:24:47.839Z,752.55
2022-07-25T11:32:21.193Z,999.90
2022-07-25T11:34:51.151Z,999.90
2022-07-25T11:37:20.638Z,999.90
2022-07-25T11:39:49.699Z,999.90
2022-07-25T11:42:20.001Z,999.90
2022-07-25T11:44:50.095Z,999.90
2022-07-25T11:47:28.221Z,999.90
2022-07-25T11:49:59.204Z,999.90
2022-07-25T11:52:30.257Z,755.75
2022-07-25T11:55:01.815Z,656.17
2022-07-25T11:57:31.998Z,954.00
2022-07-25T12:00:02.687Z,999.90
2022-07-25T12:02:39.197Z,999.90
2022-07-25T12:05:10.444Z,999.90
2022-07-25T12:07:40.723Z,990.85
2022-07-25T12:10:12.369Z,999.90
2022-07-25T12:12:45.789Z,999.90
2022-07-25T12:15:15.201Z,999.90
2022-07-25T12:17:45.158Z,985.72
2022-07-25T12:20:17.316Z,982.90
2022-07-25T12:22:46.689Z,992.00
2022-07-25T12:25:15.208Z,991.58
2022-07-25T12:27:44.210Z,989.08
2022-07-25T12:30:13.698Z,979.53
2022-07-25T12:32:44.824Z,985.10
2022-07-25T12:35:15.623Z,967.83
2022-07-25T12:37:45.039Z,968.35
2022-07-25T12:40:15.537Z,983.22
2022-07-25T12:42:44.978Z,965.22
2022-07-25T12:45:14.915Z,971.60
2022-07-25T12:47:45.999Z,970.17
2022-07-25T12:50:15.793Z,950.03
2022-07-25T12:52:44.973Z,975.65
2022-07-25T12:55:15.763Z,973.78
2022-07-25T12:57:44.279Z,971.95
2022-07-25T13:00:15.095Z,973.25
2022-07-25T13:02:45.094Z,980.15
2022-07-25T13:05:13.638Z,959.08
2022-07-25T13:07:42.160Z,954.03
2022-07-25T13:10:11.138Z,984.65
2022-07-25T13:12:39.937Z,963.83
2022-07-25T13:15:09.401Z,990.17
2022-07-25T13:17:37.932Z,997.35
2022-07-25T13:20:09.433Z,973.78
2022-07-25T13:22:38.202Z,988.92
2022-07-25T13:25:07.547Z,969.63
2022-07-25T13:27:36.066Z,985.13
2022-07-25T13:30:04.840Z,966.03
2022-07-25T13:32:34.421Z,969.55
2022-07-25T13:35:03.154Z,989.53
2022-07-25T13:37:33.673Z,981.13
2022-07-25T13:40:02.213Z,989.90
2022-07-25T13:42:30.714Z,982.60
2022-07-25T13:44:59.451Z,976.85
2022-07-25T13:47:30.376Z,979.65
2022-07-25T13:49:59.142Z,952.08
2022-07-25T13:52:27.586Z,974.72
2022-07-25T13:54:57.408Z,953.80
2022-07-25T13:57:25.985Z,977.60
2022-07-25T13:59:54.768Z,980.95
2022-07-25T14:02:23.326Z,968.38
2022-07-25T14:04:51.854Z,969.78
2022-07-25T14:07:20.316Z,957.83
2022-07-25T14:09:48.815Z,976.55
2022-07-25T14:12:18.863Z,946.28
2022-07-25T14:14:47.709Z,946.08
2022-07-25T14:17:16.430Z,958.83
2022-07-25T14:19:44.966Z,956.17
2022-07-25T14:22:13.441Z,963.00
2022-07-25T14:24:41.951Z,935.17
2022-07-25T14:27:10.708Z,964.28
2022-07-25T14:29:40.801Z,932.92
2022-07-25T14:32:09.378Z,964.10
2022-07-25T14:34:40.553Z,962.60
2022-07-25T14:37:09.789Z,936.92
2022-07-25T14:39:38.647Z,963.60
2022-07-25T14:42:11.370Z,936.78
2022-07-25T14:44:41.714Z,947.40
2022-07-25T14:47:12.529Z,951.25
2022-07-25T14:49:41.879Z,931.40
2022-07-25T14:52:11.537Z,935.58
2022-07-25T14:54:40.755Z,899.30
2022-07-25T14:57:09.881Z,922.72
2022-07-25T14:59:38.487Z,914.63
2022-07-25T15:02:09.085Z,885.28
2022-07-25T15:04:37.598Z,912.55
2022-07-25T15:07:07.568Z,904.45
2022-07-25T15:09:36.054Z,909.08
2022-07-25T15:12:05.107Z,918.10
2022-07-25T15:14:33.936Z,896.60
2022-07-25T15:17:02.700Z,907.72
2022-07-25T15:19:32.841Z,898.45
2022-07-25T15:22:01.356Z,892.13
2022-07-25T15:24:29.876Z,900.42
2022-07-25T15:26:58.730Z,873.80
2022-07-25T15:29:28.356Z,862.10
2022-07-25T15:31:57.320Z,895.92
2022-07-25T15:34:25.870Z,867.67
2022-07-25T15:36:56.968Z,866.00
2022-07-25T15:39:25.787Z,899.50
2022-07-25T15:41:55.240Z,859.22
2022-07-25T15:44:25.646Z,897.25
2022-07-25T15:46:54.187Z,887.60
2022-07-25T15:49:22.966Z,898.83
2022-07-25T15:51:52.171Z,889.88
2022-07-25T15:54:25.073Z,866.72
2022-07-25T15:56:56.419Z,893.55
2022-07-25T15:59:25.124Z,886.38
2022-07-25T16:01:53.626Z,855.42
2022-07-25T16:04:22.229Z,852.83
2022-07-25T16:06:50.793Z,882.70
2022-07-25T16:09:21.111Z,878.90
2022-07-25T16:11:51.194Z,874.40
2022-07-25T16:14:19.729Z,870.95
2022-07-25T16:16:48.305Z,857.42
2022-07-25T16:19:16.933Z,862.30
2022-07-25T16:21:45.414Z,860.80
2022-07-25T16:24:13.978Z,864.17
2022-07-25T16:26:42.533Z,864.15
2022-07-25T16:29:12.890Z,862.47
2022-07-25T16:31:42.110Z,860.63
2022-07-25T16:34:11.328Z,851.25
2022-07-25T16:36:39.825Z,860.63
2022-07-25T16:39:08.971Z,853.03
2022-07-25T16:41:38.024Z,851.25
2022-07-25T16:44:06.848Z,860.13
2022-07-25T16:46:37.184Z,818.92
2022-07-25T16:49:06.058Z,859.95
2022-07-25T16:51:37.103Z,847.00
2022-07-25T16:54:06.393Z,855.22
2022-07-25T16:56:36.561Z,862.33
2022-07-25T16:59:05.480Z,827.75
2022-07-25T17:01:35.208Z,868.53
2022-07-25T17:04:05.994Z,866.67
2022-07-25T17:06:34.688Z,871.50
2022-07-25T17:09:03.155Z,842.20
2022-07-25T17:11:31.732Z,869.20
2022-07-25T17:14:00.758Z,872.30
2022-07-25T17:16:29.324Z,851.00
2022-07-25T17:18:57.956Z,843.13
2022-07-25T17:21:27.943Z,877.97
2022-07-25T17:23:56.671Z,882.83
2022-07-25T17:26:25.265Z,854.10
2022-07-25T17:28:54.203Z,881.95
2022-07-25T17:31:24.397Z,857.28
2022-07-25T17:33:52.942Z,882.90
2022-07-25T17:36:21.542Z,885.88
2022-07-25T17:38:51.603Z,862.75
2022-07-25T17:41:20.139Z,884.20
2022-07-25T17:43:49.318Z,858.40
2022-07-25T17:46:17.899Z,886.28
2022-07-25T17:48:46.775Z,877.00
2022-07-25T17:51:15.489Z,870.58
2022-07-25T17:53:44.009Z,884.65
2022-07-25T17:56:13.949Z,881.38
2022-07-25T17:58:42.631Z,880.80
2022-07-25T18:01:11.374Z,885.30
2022-07-25T18:03:39.985Z,884.22
2022-07-25T18:06:09.169Z,846.53
2022-07-25T18:08:38.249Z,870.40
2022-07-25T18:11:06.982Z,868.60
2022-07-25T18:13:36.931Z,857.65
2022-07-25T18:16:05.784Z,843.08
2022-07-25T18:18:34.290Z,871.60
2022-07-25T18:21:03.214Z,839.50
2022-07-25T18:23:31.686Z,842.05
2022-07-25T18:26:00.235Z,864.85
2022-07-25T18:28:28.909Z,854.60
2022-07-25T18:30:58.865Z,839.47
2022-07-25T18:33:27.403Z,856.65
2022-07-25T18:35:56.580Z,851.13
2022-07-25T18:38:25.039Z,832.25
2022-07-25T18:41:12.297Z,853.58
2022-07-25T18:43:42.132Z,859.53
2022-07-25T18:46:15.442Z,854.60
2022-07-25T18:48:45.815Z,851.72
2022-07-25T18:51:14.370Z,838.53
2022-07-25T18:53:47.319Z,828.88
2022-07-25T18:56:17.322Z,801.42
2022-07-25T18:58:46.206Z,818.83
2022-07-25T19:01:16.194Z,815.80
2022-07-25T19:03:44.863Z,816.55
2022-07-25T19:06:13.455Z,813.40
2022-07-25T19:08:43.795Z,817.65
2022-07-25T19:11:12.374Z,786.58
2022-07-25T19:13:50.940Z,806.28
2022-07-25T19:16:21.412Z,809.78
2022-07-25T19:18:49.984Z,809.65
2022-07-25T19:21:18.451Z,790.35
2022-07-25T19:23:50.761Z,763.35
2022-07-25T19:26:20.379Z,795.90
2022-07-25T19:28:49.076Z,777.70
2022-07-25T19:31:18.174Z,788.17
2022-07-25T19:33:48.155Z,804.67
2022-07-25T19:36:16.667Z,792.60
2022-07-25T19:38:45.148Z,801.45
2022-07-25T19:41:14.698Z,797.33
2022-07-25T19:43:43.746Z,799.60
2022-07-25T19:46:12.373Z,792.00
2022-07-25T19:48:41.344Z,790.58
2022-07-25T19:51:11.450Z,754.92
2022-07-25T19:53:40.137Z,776.00
2022-07-25T19:56:09.331Z,775.22
2022-07-25T19:58:39.057Z,792.33
2022-07-25T20:01:09.556Z,741.03
2022-07-25T20:03:38.246Z,766.42
2022-07-25T20:06:08.448Z,768.90
2022-07-25T20:08:40.571Z,766.22
2022-07-25T20:11:09.492Z,763.90
2022-07-25T20:13:37.972Z,775.28
2022-07-25T20:16:07.217Z,777.47
2022-07-25T20:18:35.874Z,767.78
2022-07-25T20:21:04.572Z,735.13
2022-07-25T20:23:33.455Z,739.17
2022-07-25T20:26:04.379Z,768.25
2022-07-25T20:28:33.453Z,741.53
2022-07-25T20:31:02.560Z,763.38
2022-07-25T20:33:31.387Z,743.65
2022-07-25T20:36:00.663Z,744.67
2022-07-25T20:38:31.199Z,743.22
2022-07-25T20:41:00.361Z,724.10
2022-07-25T20:43:30.316Z,737.30
2022-07-25T20:45:59.252Z,750.53
2022-07-25T20:48:27.879Z,746.15
2022-07-25T20:50:56.832Z,731.92
2022-07-25T20:53:25.399Z,739.08
2022-07-25T20:55:54.281Z,711.90
2022-07-25T20:58:22.823Z,736.60
2022-07-25T21:00:52.756Z,740.10
2022-07-25T21:03:21.485Z,730.55
2022-07-25T21:05:50.377Z,732.80
2022-07-25T21:08:18.951Z,732.20
2022-07-25T21:10:47.632Z,721.42
2022-07-25T21:13:18.486Z,706.50
2022-07-25T21:15:47.258Z,729.60
2022-07-25T21:18:17.239Z,703.90
2022-07-25T21:20:47.409Z,688.60
2022-07-25T21:23:16.081Z,727.00
2022-07-25T21:25:44.821Z,684.42
2022-07-25T21:28:13.951Z,719.50
2022-07-25T21:30:43.317Z,718.95
2022-07-25T21:33:14.794Z,706.90
2022-07-25T21:35:52.027Z,676.67
2022-07-25T21:38:26.007Z,690.65
2022-07-25T21:40:57.245Z,707.88
2022-07-25T21:43:26.222Z,675.45
2022-07-25T21:45:55.238Z,678.03
2022-07-25T21:48:44.171Z,693.75
2022-07-25T21:51:22.915Z,689.45
2022-07-25T21:53:52.345Z,690.25
2022-07-25T21:56:21.575Z,688.88
2022-07-25T21:58:50.213Z,655.08
2022-07-25T22:01:21.141Z,685.97
2022-07-25T22:03:49.858Z,700.33
2022-07-25T22:06:20.274Z,694.92
2022-07-25T22:08:48.835Z,695.22
2022-07-25T22:11:38.518Z,691.78
2022-07-25T22:14:06.791Z,665.75
2022-07-25T22:16:35.558Z,693.10
2022-07-25T22:19:04.773Z,678.47
2022-07-25T22:21:35.293Z,686.53
2022-07-25T22:24:03.855Z,670.80
2022-07-25T22:26:32.395Z,671.13
2022-07-25T22:29:01.194Z,670.88
2022-07-25T22:31:30.116Z,657.60
2022-07-25T22:33:58.726Z,658.47
2022-07-25T22:36:27.320Z,678.63
2022-07-25T22:38:57.306Z,671.00
2022-07-25T22:41:25.879Z,677.63
2022-07-25T22:43:58.394Z,643.38
2022-07-25T22:46:28.693Z,675.45
2022-07-25T22:48:57.965Z,666.97
2022-07-25T22:51:27.530Z,660.03
2022-07-25T22:53:58.003Z,666.05
2022-07-25T22:56:27.148Z,669.03
2022-07-25T22:58:55.728Z,674.05
2022-07-25T23:01:24.865Z,623.05
2022-07-25T23:03:53.714Z,665.00
2022-07-25T23:06:22.927Z,624.22
2022-07-25T23:08:51.761Z,663.15
2022-07-25T23:11:21.623Z,623.08
2022-07-25T23:13:50.219Z,641.35
2022-07-25T23:16:19.389Z,641.97
2022-07-25T23:18:47.891Z,625.97
2022-07-25T23:21:16.368Z,664.50
2022-07-25T23:23:44.848Z,656.38
2022-07-25T23:26:13.419Z,659.33
2022-07-25T23:28:43.276Z,646.08
2022-07-25T23:31:12.035Z,646.35
2022-07-25T23:33:40.562Z,654.22
2022-07-25T23:36:09.469Z,648.95
2022-07-25T23:38:38.076Z,655.55
2022-07-25T23:41:06.834Z,646.05
2022-07-25T23:43:56.401Z,662.45
2022-07-25T23:46:29.282Z,650.38
2022-07-25T23:49:00.334Z,624.20
2022-07-25T23:51:29.410Z,639.25
2022-07-25T23:53:58.124Z,632.17
2022-07-25T23:56:26.781Z,644.63
2022-07-25T23:58:55.303Z,628.00
